Ana Sayfa
METAR-TAF:

METAR-TAF

Havaalanları :

Mataram, Endonezya

Enlem: 08-45-29S, Boylam: 116-16-35E, yükseklik: 97 m

Güncel hava durumu gözlemi

Rapor saat 05:00 UTC de 23 dakika önce yapıldı.
Rüzgar güneydoğudan 13 kt
Sıcaklık 28°C
Nem 62%
Basınç 1011 hPa
Görüş mesafesi: 8000 m
1600 ft yükseklikte parçalı bulutlu

METAR: WADL 220500Z 14013KT 8000 SCT016 28/20 Q1011 NOSIG

Saat: 12:23 (05:23 UTC)

Tahmin

Rapor saat 23:00 UTC de 6 saat ve 23 dakika önce yapıldı.
Ayın 22'si saat 00 UTC'den ayın 22'si saat 24 UTC'ye kadar geçerli Tahmin
Rüzgar doğu/güneydoğudan 14 kt
Görüş mesafesi: 8000 m
1600 ft yükseklikte parçalı bulutlu

TAF: WADL 212300Z 2200/2224 11014KT 8000 SCT016

4.000'den fazla havaalanı için hava durumu gözlemleri ve tahminleri (METAR ve TAF raporları).

Kullanılabilir istasyonlar harita üzerinde sarı ve kırmızı noktalarla gösterilir.

İstasyonun adını görmek için fareyi noktanın üzerinde gezdirin.

Sonrasında hava gözlem ve tahminlerini görmek için tıklayın.

Haritayı değiştirmek için: yaklaştırmak için siyah artı işaretli yeşil düğmeye ve uzaklaştırmak için de eksi işaretli düğmeye hızla tıklayın; bitişik haritalar için yeşil okları kullanın.


METAR-TAF: